Time;durP1;ratioP1;P1;durP2;ratioP2;P2;SDS_P1;SDS_P2;PMS_P1;PMS_P2;Temp;Humidity;BMP_temperature;BMP_pressure;BME280_temperature;BME280_humidity;BME280_pressure;Samples;Min_cycle;Max_cycle;Signal;HPM_P1;HPM_P2
2021/07/18 00:00:14;;;;;;;;;;;;;;;24.34;58.08;102442.47;2208361;39;115235;-55
2021/07/18 00:01:46;;;;;;;;;;;;;;;24.35;57.98;102444.97;2202624;39;115424;-57
2021/07/18 00:03:18;;;;;;;;;;;;;;;24.36;57.83;102441.00;2212854;39;115477;-56
2021/07/18 00:04:52;;;;;;;;;;;;;;;24.35;58.07;102442.13;2203112;39;115489;-56
2021/07/18 00:06:23;;;;;;;;;;;;;;;24.34;58.05;102434.84;2208858;39;115499;-56
2021/07/18 00:07:55;;;;;;;;;;;;;;;24.35;58.10;102432.81;2208830;39;115453;-56
2021/07/18 00:09:27;;;;;;;;;;;;;;;24.35;57.84;102436.50;2210869;39;115701;-56
2021/07/18 00:10:59;;;;;;;;;;;;;;;24.35;57.81;102442.13;2210337;39;115790;-56
2021/07/18 00:12:31;;;;;;;;;;;;;;;24.35;58.06;102435.66;2211250;39;115409;-56
2021/07/18 00:14:03;;;;;;;;;;;;;;;24.35;57.98;102433.66;2210047;39;115598;-56
2021/07/18 00:15:35;;;;;;;;;;;;;;;24.35;57.93;102441.28;2206675;39;115504;-56
2021/07/18 00:17:06;;;;;;;;;;;;;;;24.38;58.72;102428.56;2210988;39;115829;-56
2021/07/18 00:18:38;;;;;;;;;;;;;;;24.37;58.14;102441.84;2211558;39;115426;-56
2021/07/18 00:20:12;;;;;;;;;;;;;;;24.37;57.98;102439.03;2207703;39;117130;-56
2021/07/18 00:21:44;;;;;;;;;;;;;;;24.35;57.99;102430.84;2208965;39;115920;-56
2021/07/18 00:23:18;;;;;;;;;;;;;;;24.35;58.24;102436.50;2209990;39;116125;-56
2021/07/18 00:24:49;;;;;;;;;;;;;;;24.37;58.08;102430.56;2213234;39;115843;-56
2021/07/18 00:26:22;;;;;;;;;;;;;;;24.38;58.14;102434.22;2209523;39;113913;-55
2021/07/18 00:27:54;;;;;;;;;;;;;;;24.39;58.40;102427.44;2211055;39;113574;-56
2021/07/18 00:29:25;;;;;;;;;;;;;;;24.40;58.11;102426.28;2210398;39;113795;-55
2021/07/18 00:30:57;;;;;;;;;;;;;;;24.39;58.17;102430.25;2201849;39;114299;-55
2021/07/18 00:32:29;;;;;;;;;;;;;;;24.39;58.53;102422.63;2214215;39;114220;-56
2021/07/18 00:34:01;;;;;;;;;;;;;;;24.41;58.52;102434.47;2213512;39;114296;-56
2021/07/18 00:35:34;;;;;;;;;;;;;;;24.41;58.68;102434.47;2209883;39;114078;-56
2021/07/18 00:37:06;;;;;;;;;;;;;;;24.43;58.40;102425.69;2209839;39;114029;-56
2021/07/18 00:38:37;;;;;;;;;;;;;;;24.42;58.53;102432.47;2210099;39;113850;-55
2021/07/18 00:40:10;;;;;;;;;;;;;;;24.41;58.40;102428.81;2210328;39;113837;-56
2021/07/18 00:41:42;;;;;;;;;;;;;;;24.43;58.77;102431.34;2203677;39;113830;-56
2021/07/18 00:43:14;;;;;;;;;;;;;;;24.43;58.83;102425.69;2212752;39;113821;-55
2021/07/18 00:44:46;;;;;;;;;;;;;;;24.42;58.64;102432.47;2203748;39;113789;-56
2021/07/18 00:46:17;;;;;;;;;;;;;;;24.42;58.76;102430.50;2213295;39;113805;-56
2021/07/18 00:47:49;;;;;;;;;;;;;;;24.43;58.53;102437.84;2209984;39;114851;-56
2021/07/18 00:49:21;;;;;;;;;;;;;;;24.42;58.88;102436.16;2207909;39;113986;-55
2021/07/18 00:50:54;;;;;;;;;;;;;;;24.43;58.48;102429.38;2210241;39;114903;-56
2021/07/18 00:52:26;;;;;;;;;;;;;;;24.44;59.13;102433.84;2210323;39;114769;-56
2021/07/18 00:53:58;;;;;;;;;;;;;;;24.45;58.68;102435.53;2209551;39;114779;-56
2021/07/18 00:55:30;;;;;;;;;;;;;;;24.44;59.11;102421.75;2205856;39;115421;-55
2021/07/18 00:57:02;;;;;;;;;;;;;;;24.44;59.11;102436.69;2207706;39;114971;-56
2021/07/18 00:58:34;;;;;;;;;;;;;;;24.44;59.21;102435.88;2204357;39;114852;-56
2021/07/18 01:00:07;;;;;;;;;;;;;;;24.45;59.01;102435.53;2207639;39;113896;-56
2021/07/18 01:01:39;;;;;;;;;;;;;;;24.45;58.97;102426.22;2203851;39;115065;-56
2021/07/18 01:03:11;;;;;;;;;;;;;;;24.45;59.08;102429.91;2207752;39;114726;-55
2021/07/18 01:04:43;;;;;;;;;;;;;;;24.46;58.97;102422.25;2210570;39;114701;-56
2021/07/18 01:06:15;;;;;;;;;;;;;;;24.45;59.27;102426.22;2211848;39;114886;-56
2021/07/18 01:07:46;;;;;;;;;;;;;;;24.44;59.15;102425.38;2214511;39;114977;-56
2021/07/18 01:09:19;;;;;;;;;;;;;;;24.46;59.19;102427.91;2210584;39;116002;-56
2021/07/18 01:10:50;;;;;;;;;;;;;;;24.46;58.83;102430.75;2208777;39;115884;-57
2021/07/18 01:12:22;;;;;;;;;;;;;;;24.46;59.16;102422.25;2207448;39;115569;-56
2021/07/18 01:13:54;;;;;;;;;;;;;;;24.46;59.51;102422.25;2213544;39;115605;-56
2021/07/18 01:15:26;;;;;;;;;;;;;;;24.48;59.29;102431.28;2212016;39;115669;-56
2021/07/18 01:16:59;;;;;;;;;;;;;;;24.48;59.29;102422.81;2209628;39;115578;-55
2021/07/18 01:18:32;;;;;;;;;;;;;;;24.52;59.17;102423.91;2210655;39;117060;-56
2021/07/18 01:20:05;;;;;;;;;;;;;;;24.51;58.86;102425.03;2211648;39;115870;-55
2021/07/18 01:21:38;;;;;;;;;;;;;;;24.52;59.31;102419.09;2210112;39;115534;-55
2021/07/18 01:23:10;;;;;;;;;;;;;;;24.52;58.95;102416.25;2208590;39;115731;-56
2021/07/18 01:24:44;;;;;;;;;;;;;;;24.52;59.08;102421.91;2211515;39;115123;-56
2021/07/18 01:26:15;;;;;;;;;;;;;;;24.54;59.13;102413.13;2210580;39;115447;-56
2021/07/18 01:27:49;;;;;;;;;;;;;;;24.54;58.73;102415.94;2209058;39;115884;-56
2021/07/18 01:29:21;;;;;;;;;;;;;;;24.53;58.94;102425.59;2215206;39;116450;-56
2021/07/18 01:30:52;;;;;;;;;;;;;;;24.55;59.24;102426.97;2212778;39;115703;-56
2021/07/18 01:32:24;;;;;;;;;;;;;;;24.55;58.85;102417.63;2212067;39;113746;-56
2021/07/18 01:33:56;;;;;;;;;;;;;;;24.54;58.83;102415.94;2210118;39;113800;-56
2021/07/18 01:35:28;;;;;;;;;;;;;;;24.54;58.71;102415.94;2210261;39;114492;-55
2021/07/18 01:37:00;;;;;;;;;;;;;;;24.54;58.44;102418.78;2210372;39;113787;-56
2021/07/18 01:38:32;;;;;;;;;;;;;;;24.55;58.68;102409.16;2208764;39;114045;-56
2021/07/18 01:40:05;;;;;;;;;;;;;;;24.55;58.17;102418.47;2208775;39;113552;-55
2021/07/18 01:41:38;;;;;;;;;;;;;;;24.55;58.33;102409.16;2210854;39;113750;-56
2021/07/18 01:43:09;;;;;;;;;;;;;;;24.58;58.02;102402.91;2204972;39;114010;-56
2021/07/18 01:44:42;;;;;;;;;;;;;;;24.57;58.23;102404.91;2206838;39;113915;-56
2021/07/18 01:46:13;;;;;;;;;;;;;;;24.58;57.91;102411.38;2209979;39;113975;-56
2021/07/18 01:47:46;;;;;;;;;;;;;;;24.59;58.05;102404.59;2210925;39;113909;-56
2021/07/18 01:49:18;;;;;;;;;;;;;;;24.61;57.92;102405.13;2211493;39;113704;-55
2021/07/18 01:50:49;;;;;;;;;;;;;;;24.58;58.21;102405.72;2210819;39;113702;-56
2021/07/18 01:52:21;;;;;;;;;;;;;;;24.58;58.15;102405.72;2209160;39;113660;-56
2021/07/18 01:53:53;;;;;;;;;;;;;;;24.58;57.90;102402.91;2208641;39;115374;-55
2021/07/18 01:55:25;;;;;;;;;;;;;;;24.57;57.90;102401.22;2207660;39;113900;-56
2021/07/18 01:56:57;;;;;;;;;;;;;;;24.58;57.97;102403.75;2209003;39;114896;-55
2021/07/18 01:58:29;;;;;;;;;;;;;;;24.55;58.04;102397.84;2209101;39;114763;-56
2021/07/18 02:00:01;;;;;;;;;;;;;;;24.57;57.70;102404.06;2210552;39;115245;-56
2021/07/18 02:01:33;;;;;;;;;;;;;;;24.57;58.33;102404.91;2210678;39;114147;-59
2021/07/18 02:03:05;;;;;;;;;;;;;;;24.58;58.11;102412.22;2215773;39;114782;-56
2021/07/18 02:04:37;;;;;;;;;;;;;;;24.58;58.63;102408.53;2210440;39;113888;-56
2021/07/18 02:06:09;;;;;;;;;;;;;;;24.58;57.95;102417.03;2211112;39;114933;-56
2021/07/18 02:07:42;;;;;;;;;;;;;;;24.59;58.11;102407.41;2217269;39;115051;-56
2021/07/18 02:09:14;;;;;;;;;;;;;;;24.59;58.53;102405.44;2210749;39;114759;-56
2021/07/18 02:10:46;;;;;;;;;;;;;;;24.58;58.16;102406.56;2207825;39;114483;-56
2021/07/18 02:12:18;;;;;;;;;;;;;;;24.59;58.34;102404.59;2207894;39;114223;-56
2021/07/18 02:13:51;;;;;;;;;;;;;;;24.59;58.50;102405.44;2213683;39;114826;-56
2021/07/18 02:15:23;;;;;;;;;;;;;;;24.59;58.39;102407.41;2209072;39;114684;-55
2021/07/18 02:16:55;;;;;;;;;;;;;;;24.59;58.50;102401.75;2208592;39;116036;-55
2021/07/18 02:18:27;;;;;;;;;;;;;;;24.58;58.40;102400.06;2211783;39;115487;-56
2021/07/18 02:19:59;;;;;;;;;;;;;;;24.59;58.40;102396.94;2210581;39;115906;-56
2021/07/18 02:21:31;;;;;;;;;;;;;;;24.60;58.38;102400.63;2208822;39;115615;-56
2021/07/18 02:23:03;;;;;;;;;;;;;;;24.61;58.69;102400.34;2211011;39;115470;-56
2021/07/18 02:24:35;;;;;;;;;;;;;;;24.59;58.62;102393.28;2213942;39;114515;-56
2021/07/18 02:26:07;;;;;;;;;;;;;;;24.60;58.91;102395.81;2205919;39;118503;-56
2021/07/18 02:27:39;;;;;;;;;;;;;;;24.61;58.47;102396.66;2210402;39;115610;-56
2021/07/18 02:29:11;;;;;;;;;;;;;;;24.60;58.44;102395.81;2208490;39;114591;-56
2021/07/18 02:30:42;;;;;;;;;;;;;;;24.62;58.91;102404.00;2205710;39;115665;-56
2021/07/18 02:32:14;;;;;;;;;;;;;;;24.62;58.26;102402.00;2211567;39;115567;-56
2021/07/18 02:33:46;;;;;;;;;;;;;;;24.61;58.51;102396.66;2208369;39;116030;-56
2021/07/18 02:35:18;;;;;;;;;;;;;;;24.61;58.59;102394.69;2213727;39;115427;-56
2021/07/18 02:36:50;;;;;;;;;;;;;;;24.62;58.46;102392.69;2208932;39;114767;-55
2021/07/18 02:38:21;;;;;;;;;;;;;;;24.60;58.55;102401.47;2210725;39;113975;-56
2021/07/18 02:39:53;;;;;;;;;;;;;;;24.63;58.94;102400.00;2210568;39;113620;-56
2021/07/18 02:41:26;;;;;;;;;;;;;;;24.62;58.33;102401.19;2211592;39;114224;-56
2021/07/18 02:42:57;;;;;;;;;;;;;;;24.62;58.44;102398.34;2210915;39;113650;-55
2021/07/18 02:44:29;;;;;;;;;;;;;;;24.63;58.93;102400.00;2209641;39;113970;-56
2021/07/18 02:46:01;;;;;;;;;;;;;;;24.63;58.21;102405.66;2210393;39;113918;-57
2021/07/18 02:47:32;;;;;;;;;;;;;;;24.62;58.20;102401.19;2210859;39;113902;-56
2021/07/18 02:49:04;;;;;;;;;;;;;;;24.62;58.84;102401.19;2211678;39;113934;-56
2021/07/18 02:50:36;;;;;;;;;;;;;;;24.61;58.89;102394.69;2211948;39;113774;-56
2021/07/18 02:52:09;;;;;;;;;;;;;;;24.64;58.58;102407.34;2210799;39;114014;-56
2021/07/18 02:53:40;;;;;;;;;;;;;;;24.62;58.49;102402.00;2209144;39;113918;-56
2021/07/18 02:55:13;;;;;;;;;;;;;;;24.62;58.53;102406.81;2207918;39;114073;-56
2021/07/18 02:56:44;;;;;;;;;;;;;;;24.63;58.63;102402.84;2210042;39;114008;-56
2021/07/18 02:58:16;;;;;;;;;;;;;;;24.64;58.93;102396.03;2214235;39;113651;-55
2021/07/18 02:59:48;;;;;;;;;;;;;;;24.63;58.76;102397.19;2211572;39;115509;-56
2021/07/18 03:01:20;;;;;;;;;;;;;;;24.62;58.87;102387.84;2210570;39;114852;-56
2021/07/18 03:02:52;;;;;;;;;;;;;;;24.64;58.72;102390.41;2217072;39;114784;-56
2021/07/18 03:04:24;;;;;;;;;;;;;;;24.65;59.07;102392.09;2207576;39;115115;-56
2021/07/18 03:05:55;;;;;;;;;;;;;;;24.63;58.52;102389.56;2211145;39;115007;-56
2021/07/18 03:07:27;;;;;;;;;;;;;;;24.62;58.51;102390.69;2211624;39;114978;-56
2021/07/18 03:08:59;;;;;;;;;;;;;;;24.62;58.87;102392.69;2208871;39;114866;-56
2021/07/18 03:10:30;;;;;;;;;;;;;;;24.63;58.79;102389.56;2210824;39;114838;-55
2021/07/18 03:12:02;;;;;;;;;;;;;;;24.64;58.90;102387.56;2211442;39;115128;-56
2021/07/18 03:13:35;;;;;;;;;;;;;;;24.63;58.61;102392.38;2211218;39;115291;-56
2021/07/18 03:15:09;;;;;;;;;;;;;;;24.63;58.38;102395.19;2211665;39;115010;-56
2021/07/18 03:16:41;;;;;;;;;;;;;;;24.64;58.84;102391.25;2206501;39;113946;-56
2021/07/18 03:18:13;;;;;;;;;;;;;;;24.64;58.48;102393.22;2210810;39;114787;-56
2021/07/18 03:19:45;;;;;;;;;;;;;;;24.62;58.75;102390.69;2214078;39;114819;-56
2021/07/18 03:21:17;;;;;;;;;;;;;;;24.63;58.41;102400.00;2217158;39;115948;-56
2021/07/18 03:22:49;;;;;;;;;;;;;;;24.66;58.56;102399.44;2207449;39;115901;-56
2021/07/18 03:24:21;;;;;;;;;;;;;;;24.64;58.44;102399.72;2214063;39;115681;-56
2021/07/18 03:25:52;;;;;;;;;;;;;;;24.63;58.37;102400.00;2210745;39;114505;-56
2021/07/18 03:27:24;;;;;;;;;;;;;;;24.64;58.50;102398.88;2210849;39;115562;-56
2021/07/18 03:28:56;;;;;;;;;;;;;;;24.64;58.23;102391.25;2211198;39;115412;-56
2021/07/18 03:30:28;;;;;;;;;;;;;;;24.64;58.42;102390.41;2207974;39;114572;-56
2021/07/18 03:32:00;;;;;;;;;;;;;;;24.65;58.57;102395.75;2206229;39;116418;-55
2021/07/18 03:33:32;;;;;;;;;;;;;;;24.63;57.93;102392.38;2211309;39;115882;-56
2021/07/18 03:35:05;;;;;;;;;;;;;;;24.65;58.29;102395.75;2211284;39;116045;-56
2021/07/18 03:36:38;;;;;;;;;;;;;;;24.63;58.35;102394.34;2211422;39;115571;-56
2021/07/18 03:38:10;;;;;;;;;;;;;;;24.64;58.23;102391.25;2210861;39;116241;-56
2021/07/18 03:39:42;;;;;;;;;;;;;;;24.63;58.57;102389.56;2210137;39;115536;-55
2021/07/18 03:41:13;;;;;;;;;;;;;;;24.64;58.33;102393.22;2210740;39;115904;-56
2021/07/18 03:42:45;;;;;;;;;;;;;;;24.65;58.03;102392.94;2211317;39;114479;-56
2021/07/18 03:44:17;;;;;;;;;;;;;;;24.64;58.35;102394.06;2210290;39;114130;-56
2021/07/18 03:45:48;;;;;;;;;;;;;;;24.64;58.29;102393.22;2211316;39;113817;-56
2021/07/18 03:47:20;;;;;;;;;;;;;;;24.64;58.57;102399.72;2210299;39;114175;-56
2021/07/18 03:48:52;;;;;;;;;;;;;;;24.66;58.71;102399.44;2211254;39;113715;-56
2021/07/18 03:50:24;;;;;;;;;;;;;;;24.64;58.38;102398.88;2207458;39;113630;-57
2021/07/18 03:51:55;;;;;;;;;;;;;;;24.63;58.65;102392.38;2209692;39;114709;-56
2021/07/18 03:53:28;;;;;;;;;;;;;;;24.62;58.62;102396.34;2210932;39;113746;-55
2021/07/18 03:55:00;;;;;;;;;;;;;;;24.64;58.36;102388.41;2210836;39;113757;-56
2021/07/18 03:56:32;;;;;;;;;;;;;;;24.65;58.41;102390.09;2211236;39;113959;-55
2021/07/18 03:58:04;;;;;;;;;;;;;;;24.63;58.31;102388.69;2201387;39;114034;-56
2021/07/18 03:59:35;;;;;;;;;;;;;;;24.65;58.34;102389.25;2213195;39;114000;-56
2021/07/18 04:01:11;;;;;;;;;;;;;;;24.65;58.08;102394.91;2213085;39;114005;-55
2021/07/18 04:02:43;;;;;;;;;;;;;;;24.67;58.50;102386.94;2214122;39;113854;-56
2021/07/18 04:04:16;;;;;;;;;;;;;;;24.63;58.32;102391.53;2209673;39;115251;-56
2021/07/18 04:05:47;;;;;;;;;;;;;;;24.62;58.36;102392.69;2208995;39;114787;-55
2021/07/18 04:07:19;;;;;;;;;;;;;;;24.63;58.00;102385.88;2207951;39;115958;-56
2021/07/18 04:08:51;;;;;;;;;;;;;;;24.62;58.29;102384.22;2210582;39;114667;-56
2021/07/18 04:10:22;;;;;;;;;;;;;;;24.62;58.60;102389.88;2211106;39;113850;-56
2021/07/18 04:11:54;;;;;;;;;;;;;;;24.61;58.19;102386.19;2207465;39;115102;-57
2021/07/18 04:13:27;;;;;;;;;;;;;;;24.61;58.58;102382.53;2208081;39;115315;-55
2021/07/18 04:14:58;;;;;;;;;;;;;;;24.62;58.54;102381.41;2210546;39;115107;-55
2021/07/18 04:16:30;;;;;;;;;;;;;;;24.62;58.43;102382.22;2210690;39;114853;-56
2021/07/18 04:18:06;;;;;;;;;;;;;;;24.60;58.48;102380.84;2215865;39;114935;-56
2021/07/18 04:19:38;;;;;;;;;;;;;;;24.60;58.57;102383.66;2213106;39;114878;-56
2021/07/18 04:21:09;;;;;;;;;;;;;;;24.60;58.64;102383.66;2210647;39;114771;-56
2021/07/18 04:22:41;;;;;;;;;;;;;;;24.62;58.46;102379.38;2210528;39;114908;-55
2021/07/18 04:24:13;;;;;;;;;;;;;;;24.59;58.46;102380.00;2217701;39;115356;-56
2021/07/18 04:25:45;;;;;;;;;;;;;;;24.61;58.22;102379.69;2212642;39;114753;-56
2021/07/18 04:27:17;;;;;;;;;;;;;;;24.61;58.75;102376.88;2205485;39;115576;-56
2021/07/18 04:28:48;;;;;;;;;;;;;;;24.61;58.47;102380.53;2209035;39;115505;-56
2021/07/18 04:30:20;;;;;;;;;;;;;;;24.60;58.42;102369.53;2210378;39;115633;-56
2021/07/18 04:31:52;;;;;;;;;;;;;;;24.59;58.35;102377.16;2210261;39;115828;-55
2021/07/18 04:33:24;;;;;;;;;;;;;;;24.57;58.32;102373.81;2209938;39;115783;-55
2021/07/18 04:34:56;;;;;;;;;;;;;;;24.58;58.94;102378.31;2210535;39;115524;-56
2021/07/18 04:36:27;;;;;;;;;;;;;;;24.58;58.49;102380.28;2211349;39;115298;-56
2021/07/18 04:37:59;;;;;;;;;;;;;;;24.62;58.73;102378.56;2211008;39;114569;-55
2021/07/18 04:39:31;;;;;;;;;;;;;;;24.62;58.47;102381.41;2209765;39;115472;-58
2021/07/18 04:41:02;;;;;;;;;;;;;;;24.61;58.37;102386.19;2211618;39;115558;-55
2021/07/18 04:42:34;;;;;;;;;;;;;;;24.61;58.37;102380.53;2211245;39;115913;-56
2021/07/18 04:44:06;;;;;;;;;;;;;;;24.61;58.40;102389.03;2211647;39;114606;-56
2021/07/18 04:45:38;;;;;;;;;;;;;;;24.59;58.61;102385.66;2211803;39;115600;-56
2021/07/18 04:47:09;;;;;;;;;;;;;;;24.61;58.85;102386.19;2214192;39;115878;-56
2021/07/18 04:48:41;;;;;;;;;;;;;;;24.60;58.54;102381.69;2211773;39;113754;-55
2021/07/18 04:50:14;;;;;;;;;;;;;;;24.62;58.57;102385.03;2210780;39;113833;-56
2021/07/18 04:51:45;;;;;;;;;;;;;;;24.63;58.47;102383.06;2211621;39;114358;-65
2021/07/18 04:53:17;;;;;;;;;;;;;;;24.61;58.66;102385.34;2211299;39;113702;-55
2021/07/18 04:54:49;;;;;;;;;;;;;;;24.61;58.57;102379.69;2211266;39;113722;-55
2021/07/18 04:56:21;;;;;;;;;;;;;;;24.61;58.57;102383.38;2211781;39;113804;-56
2021/07/18 04:57:53;;;;;;;;;;;;;;;24.61;58.62;102385.34;2212078;39;114161;-55
2021/07/18 04:59:25;;;;;;;;;;;;;;;24.62;58.35;102381.41;2206153;39;113917;-55
2021/07/18 05:00:57;;;;;;;;;;;;;;;24.61;58.39;102382.53;2211643;39;114328;-56
2021/07/18 05:02:28;;;;;;;;;;;;;;;24.62;58.62;102370.09;2211164;39;113799;-56
2021/07/18 05:04:01;;;;;;;;;;;;;;;24.62;58.37;102381.41;2208906;39;113725;-56
2021/07/18 05:05:33;;;;;;;;;;;;;;;24.61;58.29;102376.88;2211534;39;113751;-55
2021/07/18 05:07:07;;;;;;;;;;;;;;;24.61;58.46;102379.69;2211319;39;114031;-56
2021/07/18 05:08:39;;;;;;;;;;;;;;;24.61;58.26;102383.38;2214168;39;114268;-56
2021/07/18 05:10:11;;;;;;;;;;;;;;;24.63;58.46;102381.06;2211854;39;114347;-56
2021/07/18 05:11:42;;;;;;;;;;;;;;;24.60;58.32;102387.34;2211558;39;114826;-55
2021/07/18 05:13:14;;;;;;;;;;;;;;;24.59;58.10;102388.47;2211687;39;114589;-56
2021/07/18 05:14:46;;;;;;;;;;;;;;;24.63;58.29;102391.53;2210479;39;114787;-58
2021/07/18 05:16:18;;;;;;;;;;;;;;;24.62;58.40;102390.69;2205461;39;114880;-56
2021/07/18 05:17:51;;;;;;;;;;;;;;;24.62;58.08;102387.03;2214961;39;115357;-56
2021/07/18 05:19:22;;;;;;;;;;;;;;;24.62;58.30;102387.84;2215376;39;115178;-55
2021/07/18 05:20:54;;;;;;;;;;;;;;;24.61;58.01;102388.19;2211883;39;114832;-58
2021/07/18 05:22:26;;;;;;;;;;;;;;;24.62;58.14;102387.03;2209045;39;114482;-58
2021/07/18 05:23:57;;;;;;;;;;;;;;;24.63;58.13;102385.88;2210849;39;114061;-56
2021/07/18 05:25:29;;;;;;;;;;;;;;;24.61;57.93;102389.03;2208026;39;114789;-55
2021/07/18 05:27:01;;;;;;;;;;;;;;;24.65;58.23;102389.25;2209375;39;114380;-56
2021/07/18 05:28:33;;;;;;;;;;;;;;;24.63;57.84;102388.69;2211445;39;115012;-56
2021/07/18 05:30:06;;;;;;;;;;;;;;;24.62;58.06;102384.22;2215115;39;114724;-56
2021/07/18 05:31:37;;;;;;;;;;;;;;;24.64;57.78;102387.56;2211796;39;115463;-56
2021/07/18 05:33:09;;;;;;;;;;;;;;;24.66;57.95;102379.63;2216157;39;116261;-56
2021/07/18 05:34:41;;;;;;;;;;;;;;;24.63;58.12;102383.06;2216687;39;115663;-56
2021/07/18 05:36:12;;;;;;;;;;;;;;;24.64;58.16;102388.41;2211619;39;116195;-56
2021/07/18 05:37:44;;;;;;;;;;;;;;;24.62;57.74;102385.03;2203972;39;114512;-56
2021/07/18 05:39:16;;;;;;;;;;;;;;;24.63;57.94;102389.56;2209172;39;115632;-56
2021/07/18 05:40:47;;;;;;;;;;;;;;;24.63;57.77;102391.53;2210995;39;115441;-56
2021/07/18 05:42:19;;;;;;;;;;;;;;;24.59;57.77;102387.63;2211527;39;115849;-56
2021/07/18 05:43:51;;;;;;;;;;;;;;;24.60;57.68;102392.16;2210577;39;115510;-56
2021/07/18 05:45:23;;;;;;;;;;;;;;;24.58;57.97;102391.59;2212046;39;115439;-55
2021/07/18 05:46:54;;;;;;;;;;;;;;;24.59;57.89;102387.63;2211548;39;115327;-55
2021/07/18 05:48:26;;;;;;;;;;;;;;;24.56;57.96;102391.91;2212033;39;115595;-56
2021/07/18 05:49:58;;;;;;;;;;;;;;;24.60;58.17;102393.00;2211811;39;116065;-56
2021/07/18 05:51:31;;;;;;;;;;;;;;;24.59;58.05;102390.44;2213951;39;115507;-57
2021/07/18 05:53:03;;;;;;;;;;;;;;;24.59;58.08;102390.44;2211323;39;113760;-61
2021/07/18 05:54:35;;;;;;;;;;;;;;;24.58;57.73;102389.59;2211641;39;114531;-55
2021/07/18 05:56:07;;;;;;;;;;;;;;;24.60;57.80;102398.63;2210083;39;113671;-56
2021/07/18 05:57:38;;;;;;;;;;;;;;;24.59;58.02;102396.94;2211146;39;113821;-56
2021/07/18 05:59:10;;;;;;;;;;;;;;;24.61;58.29;102399.50;2210227;39;113779;-56
2021/07/18 06:00:42;;;;;;;;;;;;;;;24.58;58.27;102395.25;2211168;39;113869;-56
2021/07/18 06:02:15;;;;;;;;;;;;;;;24.58;57.97;102400.91;2211250;39;113992;-56
2021/07/18 06:03:48;;;;;;;;;;;;;;;24.60;57.90;102397.78;2210893;39;113584;-56
2021/07/18 06:05:20;;;;;;;;;;;;;;;24.59;58.25;102393.28;2210007;39;113815;-55
2021/07/18 06:06:51;;;;;;;;;;;;;;;24.58;58.28;102394.41;2208436;39;113968;-56
2021/07/18 06:08:23;;;;;;;;;;;;;;;24.60;58.02;102398.63;2211260;39;113634;-56
2021/07/18 06:09:55;;;;;;;;;;;;;;;24.60;57.88;102401.47;2211351;39;113692;-56
2021/07/18 06:11:27;;;;;;;;;;;;;;;24.59;58.30;102399.78;2211209;39;114025;-56
2021/07/18 06:12:58;;;;;;;;;;;;;;;24.58;58.13;102405.72;2211623;39;113555;-57
2021/07/18 06:14:30;;;;;;;;;;;;;;;24.58;58.33;102412.22;2213620;39;113645;-56
2021/07/18 06:16:02;;;;;;;;;;;;;;;24.61;58.43;102400.34;2205404;39;114956;-56
2021/07/18 06:17:35;;;;;;;;;;;;;;;24.62;58.16;102398.34;2211001;39;115073;-56
2021/07/18 06:19:07;;;;;;;;;;;;;;;24.61;58.28;102410.78;2206201;39;114779;-56
2021/07/18 06:20:39;;;;;;;;;;;;;;;24.61;58.02;102405.13;2209933;39;114307;-55
2021/07/18 06:22:10;;;;;;;;;;;;;;;24.60;58.23;102403.44;2211557;39;115591;-55
2021/07/18 06:23:42;;;;;;;;;;;;;;;24.59;58.13;102402.59;2210967;39;114784;-56
2021/07/18 06:25:15;;;;;;;;;;;;;;;24.59;58.21;102410.25;2209835;39;115081;-56
2021/07/18 06:26:47;;;;;;;;;;;;;;;24.60;58.55;102403.44;2208386;39;115291;-56
2021/07/18 06:28:19;;;;;;;;;;;;;;;24.59;58.11;102405.44;2211036;39;115183;-56
2021/07/18 06:29:51;;;;;;;;;;;;;;;24.61;58.47;102407.97;2208653;39;114783;-56
2021/07/18 06:31:23;;;;;;;;;;;;;;;24.60;58.39;102404.28;2208874;39;114797;-56
2021/07/18 06:32:54;;;;;;;;;;;;;;;24.58;58.38;102406.56;2211536;39;114826;-56
2021/07/18 06:34:26;;;;;;;;;;;;;;;24.60;58.17;102406.28;2211889;39;115392;-55
2021/07/18 06:35:58;;;;;;;;;;;;;;;24.60;58.25;102403.44;2214339;39;115368;-56
2021/07/18 06:37:30;;;;;;;;;;;;;;;24.60;58.04;102417.59;2210733;39;115478;-56
2021/07/18 06:39:02;;;;;;;;;;;;;;;24.61;58.18;102408.81;2211445;39;115856;-55
2021/07/18 06:40:34;;;;;;;;;;;;;;;24.58;58.11;102408.53;2211690;39;114978;-56
2021/07/18 06:42:06;;;;;;;;;;;;;;;24.58;58.19;102402.91;2211638;39;115599;-56
2021/07/18 06:43:37;;;;;;;;;;;;;;;24.58;58.29;102400.06;2211789;39;115847;-56
2021/07/18 06:45:24;;;;;;;;;;;;;;;24.59;58.53;102405.44;2209631;39;115713;-56
2021/07/18 06:46:55;;;;;;;;;;;;;;;24.59;58.56;102404.59;2209696;39;115453;-56
2021/07/18 06:48:27;;;;;;;;;;;;;;;24.60;58.36;102398.63;2211435;39;115735;-56
2021/07/18 06:49:59;;;;;;;;;;;;;;;24.64;58.45;102399.72;2211629;39;115410;-56
2021/07/18 06:51:31;;;;;;;;;;;;;;;24.59;58.17;102393.28;2211501;39;115598;-56
2021/07/18 06:53:03;;;;;;;;;;;;;;;24.59;58.25;102390.44;2207768;39;116180;-55
2021/07/18 06:54:35;;;;;;;;;;;;;;;24.59;58.47;102391.28;2212256;39;115699;-55
2021/07/18 06:56:07;;;;;;;;;;;;;;;24.59;58.21;102396.09;2210511;39;115811;-56
2021/07/18 06:57:38;;;;;;;;;;;;;;;24.58;58.62;102388.75;2209428;39;114593;-55
2021/07/18 06:59:10;;;;;;;;;;;;;;;24.58;58.40;102395.25;2211312;39;113698;-56
2021/07/18 07:00:42;;;;;;;;;;;;;;;24.59;58.26;102390.44;2211143;39;113765;-56
2021/07/18 07:02:14;;;;;;;;;;;;;;;24.58;58.09;102392.44;2210094;39;114177;-55
2021/07/18 07:03:46;;;;;;;;;;;;;;;24.61;58.52;102394.69;2205914;39;113956;-56
2021/07/18 07:05:18;;;;;;;;;;;;;;;24.59;58.45;102391.28;2211035;39;113787;-56
2021/07/18 07:06:50;;;;;;;;;;;;;;;24.57;58.30;102395.59;2208917;39;114189;-56
2021/07/18 07:08:21;;;;;;;;;;;;;;;24.58;58.29;102398.09;2206066;39;113918;-56
2021/07/18 07:09:53;;;;;;;;;;;;;;;24.59;58.38;102401.75;2208351;39;113949;-56
2021/07/18 07:11:25;;;;;;;;;;;;;;;24.61;58.53;102393.84;2210111;39;114005;-56
2021/07/18 07:12:57;;;;;;;;;;;;;;;24.61;58.40;102394.69;2210368;39;113990;-55
2021/07/18 07:14:29;;;;;;;;;;;;;;;24.60;58.64;102395.81;2210817;39;113903;-56
2021/07/18 07:16:00;;;;;;;;;;;;;;;24.60;58.55;102398.63;2210812;39;113802;-56
2021/07/18 07:17:32;;;;;;;;;;;;;;;24.62;58.75;102395.53;2211037;39;113753;-56
2021/07/18 07:19:04;;;;;;;;;;;;;;;24.63;58.78;102406.50;2214548;39;113966;-57
2021/07/18 07:20:36;;;;;;;;;;;;;;;24.62;58.65;102398.34;2210967;39;113918;-56
2021/07/18 07:22:08;;;;;;;;;;;;;;;24.62;58.50;102404.00;2208012;39;114259;-56
2021/07/18 07:23:40;;;;;;;;;;;;;;;24.61;58.60;102405.97;2210221;39;115355;-56
2021/07/18 07:25:13;;;;;;;;;;;;;;;24.60;58.99;102398.63;2209936;39;114347;-55
2021/07/18 07:26:45;;;;;;;;;;;;;;;24.58;58.79;102409.38;2210456;39;115308;-56
2021/07/18 07:28:17;;;;;;;;;;;;;;;24.61;58.89;102400.34;2213401;39;115364;-55
2021/07/18 07:29:49;;;;;;;;;;;;;;;24.60;58.78;102395.81;2204464;39;114850;-56
2021/07/18 07:31:20;;;;;;;;;;;;;;;24.61;59.09;102403.16;2208818;39;115003;-56
2021/07/18 07:32:52;;;;;;;;;;;;;;;24.62;58.79;102401.19;2214911;39;114896;-56
2021/07/18 07:34:24;;;;;;;;;;;;;;;24.63;58.81;102408.50;2206637;39;114978;-55
2021/07/18 07:35:56;;;;;;;;;;;;;;;24.63;58.85;102400.00;2209574;39;114875;-55
2021/07/18 07:37:28;;;;;;;;;;;;;;;24.61;58.94;102397.50;2210528;39;114807;-56
2021/07/18 07:39:00;;;;;;;;;;;;;;;24.61;58.83;102403.16;2210753;39;115836;-56
2021/07/18 07:40:32;;;;;;;;;;;;;;;24.59;59.13;102399.78;2212155;39;115038;-56
2021/07/18 07:42:05;;;;;;;;;;;;;;;24.58;58.83;102400.06;2210522;39;115628;-56
2021/07/18 07:43:37;;;;;;;;;;;;;;;24.60;59.10;102403.44;2205611;39;116437;-56
2021/07/18 07:45:10;;;;;;;;;;;;;;;24.60;59.05;102404.28;2210747;39;115580;-56
2021/07/18 07:46:42;;;;;;;;;;;;;;;24.62;59.19;102401.19;2210932;39;115866;-56